createdAt,value
2023-10-09T00:00:34.319Z,10.73
2023-10-09T00:02:37.889Z,10.25
2023-10-09T00:04:43.601Z,14.43
2023-10-09T00:06:48.083Z,9.27
2023-10-09T00:08:55.769Z,9.27
2023-10-09T00:11:14.851Z,10.40
2023-10-09T00:13:17.592Z,13.25
2023-10-09T00:15:22.185Z,11.98
2023-10-09T00:17:32.597Z,9.13
2023-10-09T00:19:38.345Z,9.00
2023-10-09T00:21:41.879Z,9.30
2023-10-09T00:23:45.473Z,7.75
2023-10-09T00:26:11.060Z,9.45
2023-10-09T00:28:20.039Z,11.35
2023-10-09T00:30:31.137Z,11.15
2023-10-09T00:32:38.109Z,9.60
2023-10-09T00:34:42.249Z,7.53
2023-10-09T00:36:52.276Z,12.73
2023-10-09T00:38:56.251Z,8.10
2023-10-09T00:41:11.199Z,8.02
2023-10-09T00:43:16.293Z,11.30
2023-10-09T00:45:28.952Z,8.07
2023-10-09T00:47:36.182Z,10.00
2023-10-09T00:49:42.868Z,10.15
2023-10-09T00:51:57.811Z,9.27
2023-10-09T00:54:08.914Z,8.10
2023-10-09T00:56:20.246Z,9.95
2023-10-09T00:58:28.314Z,11.23
2023-10-09T01:00:47.050Z,11.30
2023-10-09T01:03:11.412Z,10.15
2023-10-09T01:05:21.478Z,12.27
2023-10-09T01:07:27.301Z,11.77
2023-10-09T01:09:31.029Z,12.15
2023-10-09T01:11:35.992Z,9.13
2023-10-09T01:13:53.736Z,12.45
2023-10-09T01:15:59.825Z,12.30
2023-10-09T01:18:03.396Z,11.20
2023-10-09T01:20:17.714Z,15.05
2023-10-09T01:22:23.355Z,15.35
2023-10-09T01:24:29.406Z,10.07
2023-10-09T01:26:35.204Z,11.38
2023-10-09T01:28:39.636Z,11.68
2023-10-09T01:30:43.127Z,9.25
2023-10-09T01:32:47.451Z,11.45
2023-10-09T01:34:51.818Z,13.70
2023-10-09T01:36:57.245Z,11.05
2023-10-09T01:39:01.283Z,11.00
2023-10-09T01:41:09.224Z,7.10
2023-10-09T01:43:12.655Z,10.95
2023-10-09T01:45:29.764Z,11.32
2023-10-09T01:47:33.897Z,11.85
2023-10-09T01:49:38.455Z,9.32
2023-10-09T01:51:42.650Z,10.30
2023-10-09T01:53:48.963Z,13.75
2023-10-09T01:55:56.832Z,9.43
2023-10-09T01:58:16.372Z,10.05
2023-10-09T02:00:25.370Z,12.38
2023-10-09T02:02:29.042Z,12.30
2023-10-09T02:04:32.721Z,17.75
2023-10-09T02:06:39.256Z,9.95
2023-10-09T02:08:50.385Z,9.40
2023-10-09T02:10:57.133Z,9.90
2023-10-09T02:13:08.110Z,9.52
2023-10-09T02:15:17.018Z,7.85
2023-10-09T02:17:21.655Z,8.35
2023-10-09T02:19:32.908Z,11.30
2023-10-09T02:21:41.546Z,8.50
2023-10-09T02:23:51.067Z,8.68
2023-10-09T02:25:58.774Z,8.13
2023-10-09T02:28:07.141Z,7.90
2023-10-09T02:30:16.850Z,9.00
2023-10-09T02:32:27.124Z,8.15
2023-10-09T02:34:39.458Z,8.05
2023-10-09T02:36:50.805Z,8.40
2023-10-09T02:38:57.841Z,7.32
2023-10-09T02:41:19.511Z,6.25
2023-10-09T02:43:26.738Z,7.72
2023-10-09T02:45:37.673Z,9.95
2023-10-09T02:47:41.438Z,8.05
2023-10-09T02:49:44.848Z,8.63
2023-10-09T02:51:54.265Z,9.52
2023-10-09T02:53:57.449Z,7.75
2023-10-09T02:56:14.264Z,8.50
2023-10-09T02:58:22.317Z,8.88
2023-10-09T03:00:31.134Z,7.82
2023-10-09T03:02:34.687Z,8.98
2023-10-09T03:04:40.439Z,6.90
2023-10-09T03:06:51.251Z,7.78
2023-10-09T03:08:56.009Z,8.30
2023-10-09T03:11:01.485Z,11.38
2023-10-09T03:13:06.638Z,7.28
2023-10-09T03:15:12.703Z,7.28
2023-10-09T03:17:18.206Z,11.45
2023-10-09T03:19:21.638Z,7.13
2023-10-09T03:21:25.082Z,8.45
2023-10-09T03:23:27.656Z,10.68
2023-10-09T03:25:31.855Z,11.55
2023-10-09T03:27:35.658Z,11.00
2023-10-09T03:29:39.643Z,10.85
2023-10-09T03:31:44.497Z,12.23
2023-10-09T03:33:49.591Z,11.95
2023-10-09T03:35:53.235Z,11.40
2023-10-09T03:38:01.365Z,11.30
2023-10-09T03:40:08.318Z,12.10
2023-10-09T03:42:20.703Z,8.93
2023-10-09T03:44:24.375Z,10.50
2023-10-09T03:46:34.500Z,9.15
2023-10-09T03:48:38.196Z,12.05
2023-10-09T03:50:44.774Z,10.70
2023-10-09T03:52:47.190Z,10.43
2023-10-09T03:54:50.953Z,14.02
2023-10-09T03:56:56.123Z,11.52
2023-10-09T03:58:59.598Z,12.90
2023-10-09T04:01:04.851Z,10.00
2023-10-09T04:03:08.420Z,10.82
2023-10-09T04:05:12.524Z,10.07
2023-10-09T04:07:18.880Z,9.50
2023-10-09T04:09:37.189Z,10.43
2023-10-09T04:11:43.981Z,12.55
2023-10-09T04:13:48.532Z,11.45
2023-10-09T04:15:54.192Z,11.25
2023-10-09T04:17:58.336Z,10.95
2023-10-09T04:20:15.887Z,12.10
2023-10-09T04:22:28.689Z,13.27
2023-10-09T04:24:42.471Z,12.45
2023-10-09T04:26:46.121Z,10.82
2023-10-09T04:28:53.168Z,9.40
2023-10-09T04:30:57.469Z,11.80
2023-10-09T04:33:05.803Z,14.80
2023-10-09T04:35:26.135Z,10.85
2023-10-09T04:37:39.421Z,13.63
2023-10-09T04:39:48.371Z,12.00
2023-10-09T04:42:00.850Z,10.65
2023-10-09T04:44:20.798Z,12.38
2023-10-09T04:46:28.219Z,12.27
2023-10-09T04:48:39.740Z,11.43
2023-10-09T04:51:09.019Z,11.63
2023-10-09T04:53:24.741Z,13.07
2023-10-09T04:55:28.600Z,10.93
2023-10-09T04:57:39.120Z,12.25
2023-10-09T04:59:49.741Z,11.43
2023-10-09T05:02:00.272Z,8.68
2023-10-09T05:04:05.778Z,11.27
2023-10-09T05:06:23.123Z,11.27
2023-10-09T05:08:30.218Z,12.77
2023-10-09T05:10:33.838Z,11.45
2023-10-09T05:12:42.527Z,12.32
2023-10-09T05:15:08.054Z,10.48
2023-10-09T05:17:17.202Z,12.75
2023-10-09T05:19:35.085Z,13.48
2023-10-09T05:21:45.716Z,13.13
2023-10-09T05:24:11.115Z,11.77
2023-10-09T05:26:38.685Z,12.50
2023-10-09T05:28:54.020Z,15.35
2023-10-09T05:31:03.917Z,13.05
2023-10-09T05:33:21.467Z,14.52
2023-10-09T05:35:40.977Z,12.32
2023-10-09T05:37:47.185Z,15.75
2023-10-09T05:40:20.647Z,15.20
2023-10-09T05:42:29.832Z,14.30
2023-10-09T05:44:51.096Z,14.93
2023-10-09T05:47:23.969Z,11.32
2023-10-09T05:49:46.659Z,20.08
2023-10-09T05:52:15.741Z,12.93
2023-10-09T05:54:40.138Z,14.15
2023-10-09T05:57:03.084Z,14.77
2023-10-09T05:59:24.029Z,13.68
2023-10-09T06:01:57.676Z,16.10
2023-10-09T06:04:16.782Z,15.10
2023-10-09T06:06:34.392Z,17.13
2023-10-09T06:09:09.953Z,14.18
2023-10-09T06:11:28.105Z,12.93
2023-10-09T06:13:46.954Z,15.88
2023-10-09T06:16:10.991Z,16.17
2023-10-09T06:18:33.795Z,15.23
2023-10-09T06:21:11.474Z,14.45
2023-10-09T06:23:18.285Z,14.70
2023-10-09T06:25:20.856Z,15.65
2023-10-09T06:27:46.757Z,15.70
2023-10-09T06:30:13.832Z,12.15
2023-10-09T06:32:38.525Z,15.98
2023-10-09T06:34:46.755Z,17.27
2023-10-09T06:36:55.331Z,14.88
2023-10-09T06:39:29.842Z,14.98
2023-10-09T06:41:39.021Z,16.45
2023-10-09T06:43:49.184Z,17.15
2023-10-09T06:45:57.025Z,18.42
2023-10-09T06:48:09.473Z,17.55
2023-10-09T06:50:49.132Z,18.08
2023-10-09T06:53:17.907Z,16.63
2023-10-09T06:55:35.021Z,16.48
2023-10-09T06:57:50.482Z,14.07
2023-10-09T07:00:08.414Z,15.32
2023-10-09T07:02:30.652Z,15.63
2023-10-09T07:04:48.414Z,18.38
2023-10-09T07:06:52.693Z,19.23
2023-10-09T07:09:17.416Z,17.42
2023-10-09T07:11:23.249Z,17.40
2023-10-09T07:13:28.604Z,17.15
2023-10-09T07:15:50.723Z,15.27
2023-10-09T07:17:57.284Z,15.95
2023-10-09T07:20:14.486Z,21.23
2023-10-09T07:22:26.482Z,18.38
2023-10-09T07:24:39.531Z,22.40
2023-10-09T07:26:49.161Z,18.25
2023-10-09T07:29:02.353Z,17.65
2023-10-09T07:31:11.407Z,16.52
2023-10-09T07:33:19.725Z,18.48
2023-10-09T07:35:46.852Z,17.85
2023-10-09T07:37:52.276Z,20.40
2023-10-09T07:39:59.904Z,18.15
2023-10-09T07:42:20.141Z,19.92
2023-10-09T07:44:39.207Z,15.68
2023-10-09T07:46:54.200Z,15.85
2023-10-09T07:48:58.872Z,17.52
2023-10-09T07:51:06.736Z,18.85
2023-10-09T07:53:28.563Z,18.55
2023-10-09T07:55:42.035Z,17.80
2023-10-09T07:57:53.483Z,21.45
2023-10-09T08:00:05.141Z,21.85
2023-10-09T08:02:14.672Z,17.02
2023-10-09T08:04:21.969Z,19.70
2023-10-09T08:07:02.832Z,15.45
2023-10-09T08:09:40.282Z,16.63
2023-10-09T08:11:58.776Z,21.10
2023-10-09T08:14:22.214Z,23.13
2023-10-09T08:16:38.143Z,15.20
2023-10-09T08:18:46.528Z,17.52
2023-10-09T08:21:14.039Z,17.27
2023-10-09T08:23:30.566Z,14.98
2023-10-09T08:25:37.586Z,17.27
2023-10-09T08:27:55.952Z,16.63
2023-10-09T08:30:14.002Z,15.55
2023-10-09T08:37:03.266Z,21.30
2023-10-09T08:39:18.335Z,17.25
2023-10-09T08:41:26.793Z,14.88
2023-10-09T08:43:32.611Z,15.40
2023-10-09T08:45:36.809Z,16.95
2023-10-09T08:47:41.352Z,14.88
2023-10-09T08:49:45.201Z,15.70
2023-10-09T08:51:49.838Z,18.40
2023-10-09T08:53:54.317Z,15.98
2023-10-09T08:55:58.410Z,19.42
2023-10-09T08:58:07.246Z,19.40
2023-10-09T09:00:13.628Z,13.77
2023-10-09T09:02:18.896Z,19.48
2023-10-09T09:04:40.344Z,16.10
2023-10-09T09:06:45.064Z,14.82
2023-10-09T09:08:49.699Z,18.65
2023-10-09T09:10:59.729Z,16.70
2023-10-09T09:13:05.267Z,16.75
2023-10-09T09:15:20.039Z,15.27
2023-10-09T09:17:32.165Z,16.88
2023-10-09T09:19:39.556Z,17.10
2023-10-09T09:21:46.312Z,14.55
2023-10-09T09:24:18.575Z,16.23
2023-10-09T09:26:39.250Z,19.85
2023-10-09T09:28:56.655Z,15.88
2023-10-09T09:31:14.731Z,15.93
2023-10-09T09:33:22.239Z,18.17
2023-10-09T09:35:29.063Z,15.98
2023-10-09T09:37:36.019Z,20.15
2023-10-09T09:39:54.865Z,19.60
2023-10-09T09:42:09.048Z,14.30
2023-10-09T09:44:18.585Z,18.15
2023-10-09T09:46:29.927Z,13.40
2023-10-09T09:48:34.232Z,19.48
2023-10-09T09:50:45.167Z,19.88
2023-10-09T09:52:51.518Z,20.10
2023-10-09T09:54:55.478Z,15.70
2023-10-09T09:57:01.898Z,15.15
2023-10-09T09:59:08.125Z,17.80
2023-10-09T10:01:17.853Z,19.95
2023-10-09T10:03:24.945Z,17.13
2023-10-09T10:05:31.198Z,19.10
2023-10-09T10:07:42.868Z,15.60
2023-10-09T10:09:47.268Z,19.42
2023-10-09T10:11:53.739Z,13.85
2023-10-09T10:14:02.913Z,18.45
2023-10-09T10:16:16.489Z,15.52
2023-10-09T10:18:22.525Z,19.65
2023-10-09T10:20:28.332Z,14.82
2023-10-09T10:22:34.338Z,13.95
2023-10-09T10:24:56.225Z,17.05
2023-10-09T10:27:25.568Z,17.52
2023-10-09T10:29:35.471Z,17.55
2023-10-09T10:32:08.347Z,16.17
2023-10-09T10:34:13.015Z,13.77
2023-10-09T10:36:26.411Z,12.48
2023-10-09T10:38:35.606Z,16.90
2023-10-09T10:40:47.566Z,19.02
2023-10-09T10:43:11.106Z,14.45
2023-10-09T10:45:35.835Z,20.85
2023-10-09T10:47:42.300Z,18.08
2023-10-09T10:49:50.772Z,14.98
2023-10-09T10:52:03.182Z,18.88
2023-10-09T10:54:25.118Z,18.02
2023-10-09T10:56:37.806Z,14.15
2023-10-09T10:58:49.175Z,16.90
2023-10-09T11:01:19.180Z,15.13
2023-10-09T11:03:31.746Z,16.48
2023-10-09T11:05:41.548Z,14.18
2023-10-09T11:07:50.906Z,20.60
2023-10-09T11:10:10.778Z,18.77
2023-10-09T11:12:23.427Z,17.08
2023-10-09T11:14:26.819Z,12.95
2023-10-09T11:16:45.534Z,16.42
2023-10-09T11:18:49.975Z,15.15
2023-10-09T11:21:00.351Z,18.88
2023-10-09T11:23:17.258Z,16.85
2023-10-09T11:25:20.645Z,13.55
2023-10-09T11:27:28.308Z,22.10
2023-10-09T11:29:33.459Z,13.35
2023-10-09T11:31:39.605Z,18.00
2023-10-09T11:33:46.596Z,15.63
2023-10-09T11:35:59.718Z,11.98
2023-10-09T11:38:22.504Z,14.85
2023-10-09T11:40:35.984Z,13.73
2023-10-09T11:42:39.824Z,13.02
2023-10-09T11:44:46.427Z,14.13
2023-10-09T11:47:16.148Z,11.82
2023-10-09T11:49:36.064Z,12.60
2023-10-09T11:51:49.158Z,16.15
2023-10-09T11:53:57.046Z,12.15
2023-10-09T11:56:00.187Z,11.18
2023-10-09T11:58:05.930Z,11.63
2023-10-09T12:00:26.190Z,11.45
2023-10-09T12:02:34.423Z,11.95
2023-10-09T12:04:46.512Z,11.20
2023-10-09T12:06:50.960Z,14.70
2023-10-09T12:09:01.359Z,11.82
2023-10-09T12:11:10.016Z,12.02
2023-10-09T12:13:17.118Z,10.85
2023-10-09T12:15:20.824Z,14.32
2023-10-09T12:17:27.921Z,9.27
2023-10-09T12:19:35.732Z,12.32
2023-10-09T12:21:44.415Z,13.68
2023-10-09T12:23:48.805Z,10.32
2023-10-09T12:25:58.479Z,8.13
2023-10-09T12:28:03.621Z,10.05
2023-10-09T12:30:09.357Z,8.63
2023-10-09T12:32:13.518Z,11.80
2023-10-09T12:34:18.419Z,9.00
2023-10-09T12:36:23.907Z,8.90
2023-10-09T12:38:34.911Z,9.80
2023-10-09T12:40:40.748Z,12.93
2023-10-09T12:42:43.699Z,12.07
2023-10-09T12:44:47.726Z,11.52
2023-10-09T12:46:53.922Z,15.00
2023-10-09T12:48:59.115Z,9.90
2023-10-09T12:51:07.722Z,12.68
2023-10-09T12:53:19.523Z,10.60
2023-10-09T12:55:33.842Z,11.65
2023-10-09T12:57:37.879Z,9.65
2023-10-09T12:59:45.230Z,10.32
2023-10-09T13:01:53.939Z,10.10
2023-10-09T13:03:58.182Z,10.35
2023-10-09T13:06:05.157Z,10.10
2023-10-09T13:08:13.195Z,13.02
2023-10-09T13:10:18.743Z,10.75
2023-10-09T13:12:23.297Z,11.80
2023-10-09T13:14:27.651Z,9.95
2023-10-09T13:16:33.087Z,10.65
2023-10-09T13:18:41.484Z,10.18
2023-10-09T13:20:46.776Z,8.73
2023-10-09T13:22:54.565Z,14.13
2023-10-09T13:25:05.942Z,13.45
2023-10-09T13:27:12.847Z,10.77
2023-10-09T13:29:26.051Z,8.20
2023-10-09T13:31:33.652Z,8.07
2023-10-09T13:33:38.481Z,10.15
2023-10-09T13:35:51.021Z,12.15
2023-10-09T13:37:58.541Z,9.65
2023-10-09T13:40:10.845Z,10.35
2023-10-09T13:42:17.577Z,10.35
2023-10-09T13:44:22.875Z,9.88
2023-10-09T13:46:26.951Z,10.85
2023-10-09T13:48:38.857Z,10.95
2023-10-09T13:50:44.311Z,9.60
2023-10-09T13:52:48.218Z,15.23
2023-10-09T13:54:52.420Z,10.00
2023-10-09T13:56:59.772Z,8.60
2023-10-09T13:59:12.291Z,7.88
2023-10-09T14:01:28.512Z,10.00
2023-10-09T14:03:34.167Z,8.32
2023-10-09T14:05:53.402Z,12.30
2023-10-09T14:08:01.887Z,7.60
2023-10-09T14:10:18.827Z,8.02
2023-10-09T14:12:23.322Z,10.35
2023-10-09T14:14:28.705Z,8.32
2023-10-09T14:16:34.778Z,10.60
2023-10-09T14:18:38.869Z,9.60
2023-10-09T14:20:42.905Z,9.00
2023-10-09T14:22:47.711Z,9.20
2023-10-09T14:24:56.930Z,9.07
2023-10-09T14:27:01.249Z,7.47
2023-10-09T14:29:08.304Z,9.48
2023-10-09T14:31:16.506Z,7.75
2023-10-09T14:33:29.508Z,12.52
2023-10-09T14:35:36.673Z,13.27
2023-10-09T14:37:42.868Z,12.32
2023-10-09T14:39:49.995Z,10.55
2023-10-09T14:41:56.257Z,11.05
2023-10-09T14:44:03.772Z,9.35
2023-10-09T14:46:12.274Z,11.13
2023-10-09T14:48:19.707Z,9.60
2023-10-09T14:50:24.904Z,11.00
2023-10-09T14:52:28.929Z,9.25
2023-10-09T14:54:31.803Z,11.60
2023-10-09T14:56:40.244Z,9.50
2023-10-09T14:58:43.021Z,11.65
2023-10-09T15:00:49.613Z,11.07
2023-10-09T15:02:54.486Z,8.10
2023-10-09T15:05:00.665Z,8.13
2023-10-09T15:07:08.430Z,9.02
2023-10-09T15:09:23.297Z,11.10
2023-10-09T15:11:30.094Z,11.30
2023-10-09T15:13:41.074Z,12.88
2023-10-09T15:15:44.434Z,14.13
2023-10-09T15:17:50.241Z,10.73
2023-10-09T15:19:58.430Z,13.57
2023-10-09T15:22:09.916Z,12.52
2023-10-09T15:24:19.464Z,11.32
2023-10-09T15:26:26.544Z,12.32
2023-10-09T15:28:33.952Z,8.48
2023-10-09T15:30:39.454Z,11.77
2023-10-09T15:32:46.161Z,9.75
2023-10-09T15:34:50.567Z,9.52
2023-10-09T15:36:57.707Z,10.27
2023-10-09T15:39:05.033Z,11.07
2023-10-09T15:41:08.407Z,9.57
2023-10-09T15:43:14.876Z,9.40
2023-10-09T15:45:19.126Z,11.43
2023-10-09T15:47:24.630Z,9.15
2023-10-09T15:49:31.490Z,9.80
2023-10-09T15:51:37.171Z,9.40
2023-10-09T15:53:42.482Z,9.95
2023-10-09T15:55:53.335Z,8.98
2023-10-09T15:57:58.854Z,15.70
2023-10-09T16:00:03.406Z,20.70
2023-10-09T16:02:11.739Z,12.07
2023-10-09T16:04:17.546Z,11.50
2023-10-09T16:06:21.845Z,13.77
2023-10-09T16:08:25.319Z,8.82
2023-10-09T16:10:29.727Z,10.60
2023-10-09T16:12:35.170Z,9.38
2023-10-09T16:14:40.177Z,9.23
2023-10-09T16:16:45.824Z,7.93
2023-10-09T16:18:50.567Z,8.90
2023-10-09T16:20:55.688Z,9.63
2023-10-09T16:23:00.583Z,8.80
2023-10-09T16:25:11.185Z,12.27
2023-10-09T16:27:16.004Z,8.73
2023-10-09T16:29:24.639Z,9.45
2023-10-09T16:31:29.015Z,11.00
2023-10-09T16:33:33.220Z,11.02
2023-10-09T16:35:41.426Z,8.68
2023-10-09T16:37:45.963Z,9.40
2023-10-09T16:39:51.096Z,9.50
2023-10-09T16:41:58.556Z,9.02
2023-10-09T16:44:02.767Z,7.63
2023-10-09T16:46:10.685Z,8.98
2023-10-09T16:48:17.079Z,9.20
2023-10-09T16:50:26.995Z,8.95
2023-10-09T16:52:31.704Z,8.98
2023-10-09T16:54:38.447Z,9.40
2023-10-09T16:56:43.991Z,7.57
2023-10-09T16:58:48.927Z,9.82
2023-10-09T17:00:58.123Z,8.63
2023-10-09T17:03:06.263Z,9.25
2023-10-09T17:05:15.044Z,6.75
2023-10-09T17:07:20.129Z,9.52
2023-10-09T17:09:25.706Z,10.05
2023-10-09T17:11:29.913Z,7.75
2023-10-09T17:13:35.639Z,7.43
2023-10-09T17:15:42.293Z,8.30
2023-10-09T17:17:52.548Z,9.75
2023-10-09T17:19:59.563Z,7.13
2023-10-09T17:22:12.475Z,8.38
2023-10-09T17:24:21.964Z,8.13
2023-10-09T17:26:26.563Z,7.57
2023-10-09T17:28:31.713Z,7.72
2023-10-09T17:30:35.773Z,8.88
2023-10-09T17:32:40.456Z,10.18
2023-10-09T17:34:45.317Z,7.20
2023-10-09T17:36:51.126Z,11.48
2023-10-09T17:39:01.659Z,9.18
2023-10-09T17:41:06.619Z,9.48
2023-10-09T17:43:11.190Z,7.05
2023-10-09T17:45:23.862Z,9.30
2023-10-09T17:47:28.899Z,6.90
2023-10-09T17:49:33.116Z,8.25
2023-10-09T17:51:37.732Z,8.23
2023-10-09T17:53:44.630Z,10.02
2023-10-09T17:55:48.939Z,7.18
2023-10-09T17:57:52.362Z,8.07
2023-10-09T17:59:57.812Z,7.32
2023-10-09T18:02:03.778Z,7.40
2023-10-09T18:04:08.298Z,7.57
2023-10-09T18:06:14.143Z,10.02
2023-10-09T18:08:19.508Z,8.05
2023-10-09T18:10:25.192Z,9.75
2023-10-09T18:12:29.848Z,7.28
2023-10-09T18:14:33.778Z,7.60
2023-10-09T18:16:39.253Z,6.78
2023-10-09T18:18:42.137Z,12.10
2023-10-09T18:20:46.112Z,8.43
2023-10-09T18:22:50.186Z,6.32
2023-10-09T18:24:54.366Z,7.75
2023-10-09T18:27:00.108Z,9.45
2023-10-09T18:29:06.596Z,6.85
2023-10-09T18:31:15.277Z,11.07
2023-10-09T18:33:19.091Z,10.40
2023-10-09T18:35:23.249Z,9.25
2023-10-09T18:37:27.605Z,8.30
2023-10-09T18:39:32.313Z,8.65
2023-10-09T18:41:36.325Z,10.35
2023-10-09T18:43:41.439Z,9.23
2023-10-09T18:45:45.572Z,6.72
2023-10-09T18:47:49.935Z,6.85
2023-10-09T18:49:53.815Z,8.02
2023-10-09T18:51:59.302Z,11.15
2023-10-09T18:54:07.321Z,9.63
2023-10-09T18:56:15.555Z,7.40
2023-10-09T18:58:20.303Z,8.80
2023-10-09T19:00:32.238Z,10.98
2023-10-09T19:02:36.969Z,9.38
2023-10-09T19:04:40.897Z,8.07
2023-10-09T19:06:47.277Z,8.40
2023-10-09T19:08:51.679Z,8.32
2023-10-09T19:11:02.197Z,7.38
2023-10-09T19:13:08.780Z,10.85
2023-10-09T19:15:15.071Z,8.57
2023-10-09T19:17:22.884Z,8.05
2023-10-09T19:19:27.644Z,8.35
2023-10-09T19:21:33.605Z,8.85
2023-10-09T19:23:38.607Z,9.20
2023-10-09T19:25:44.511Z,8.68
2023-10-09T19:27:51.825Z,8.30
2023-10-09T19:29:56.696Z,7.50
2023-10-09T19:32:00.851Z,8.60
2023-10-09T19:34:08.916Z,9.10
2023-10-09T19:36:15.935Z,9.27
2023-10-09T19:38:21.089Z,9.30
2023-10-09T19:40:30.892Z,9.43
2023-10-09T19:42:38.108Z,9.05
2023-10-09T19:44:46.031Z,9.43
2023-10-09T19:46:53.542Z,8.35
2023-10-09T19:48:58.081Z,10.23
2023-10-09T19:51:04.691Z,9.98
2023-10-09T19:53:08.892Z,9.20
2023-10-09T19:55:13.066Z,9.88
2023-10-09T19:57:18.947Z,11.05
2023-10-09T19:59:23.091Z,10.40
2023-10-09T20:01:28.035Z,9.52
2023-10-09T20:03:35.527Z,8.18
2023-10-09T20:05:42.245Z,9.15
2023-10-09T20:07:49.971Z,7.93
2023-10-09T20:09:59.470Z,8.20
2023-10-09T20:12:04.191Z,8.40
2023-10-09T20:14:07.003Z,9.60
2023-10-09T20:16:11.046Z,7.72
2023-10-09T20:18:15.322Z,10.48
2023-10-09T20:20:23.960Z,8.93
2023-10-09T20:22:28.973Z,10.77
2023-10-09T20:24:34.519Z,7.35
2023-10-09T20:26:43.447Z,8.90
2023-10-09T20:28:49.232Z,7.68
2023-10-09T20:30:55.130Z,9.45
2023-10-09T20:32:58.956Z,14.10
2023-10-09T20:35:03.099Z,11.15
2023-10-09T20:37:07.392Z,9.80
2023-10-09T20:39:12.210Z,8.93
2023-10-09T20:41:17.698Z,11.27
2023-10-09T20:43:21.884Z,8.77
2023-10-09T20:45:25.735Z,8.55
2023-10-09T20:47:34.872Z,8.38
2023-10-09T20:49:38.616Z,9.88
2023-10-09T20:51:56.699Z,8.18
2023-10-09T20:54:02.778Z,11.05
2023-10-09T20:56:07.728Z,9.98
2023-10-09T20:58:13.125Z,13.68
2023-10-09T21:00:22.610Z,9.80
2023-10-09T21:02:26.577Z,11.57
2023-10-09T21:04:30.384Z,9.55
2023-10-09T21:06:34.482Z,13.93
2023-10-09T21:08:39.416Z,12.50
2023-10-09T21:10:45.232Z,11.20
2023-10-09T21:12:50.863Z,10.63
2023-10-09T21:14:57.073Z,10.38
2023-10-09T21:17:01.279Z,10.40
2023-10-09T21:19:05.348Z,12.52
2023-10-09T21:21:11.168Z,11.27
2023-10-09T21:23:15.224Z,8.73
2023-10-09T21:25:21.856Z,8.10
2023-10-09T21:27:26.320Z,11.98
2023-10-09T21:29:30.403Z,10.57
2023-10-09T21:31:36.067Z,10.48
2023-10-09T21:33:40.154Z,10.23
2023-10-09T21:35:44.866Z,12.43
2023-10-09T21:37:50.449Z,10.65
2023-10-09T21:39:54.610Z,8.95
2023-10-09T21:41:58.614Z,12.90
2023-10-09T21:44:02.643Z,14.57
2023-10-09T21:46:09.303Z,11.32
2023-10-09T21:48:17.568Z,11.93
2023-10-09T21:50:23.195Z,10.75
2023-10-09T21:52:27.701Z,12.07
2023-10-09T21:54:31.769Z,12.48
2023-10-09T21:56:39.373Z,12.25
2023-10-09T21:58:43.553Z,8.63
2023-10-09T22:00:48.445Z,11.75
2023-10-09T22:02:51.625Z,10.00
2023-10-09T22:04:57.818Z,11.40
2023-10-09T22:07:02.108Z,10.80
2023-10-09T22:09:09.122Z,10.77
2023-10-09T22:11:13.102Z,9.88
2023-10-09T22:13:20.035Z,12.65
2023-10-09T22:15:23.756Z,9.77
2023-10-09T22:17:27.832Z,10.23
2023-10-09T22:19:36.715Z,12.68
2023-10-09T22:21:42.730Z,11.07
2023-10-09T22:23:54.294Z,10.75
2023-10-09T22:26:01.966Z,13.65
2023-10-09T22:28:10.687Z,9.90
2023-10-09T22:30:14.751Z,9.50
2023-10-09T22:32:20.035Z,7.80
2023-10-09T22:34:23.844Z,10.57
2023-10-09T22:36:46.860Z,10.57
2023-10-09T22:38:56.484Z,10.32
2023-10-09T22:41:07.489Z,9.93
2023-10-09T22:43:12.418Z,9.20
2023-10-09T22:45:16.159Z,9.88
2023-10-09T22:47:24.393Z,9.75
2023-10-09T22:49:33.739Z,12.35
2023-10-09T22:51:42.697Z,8.52
2023-10-09T22:53:48.444Z,13.75
2023-10-09T22:55:54.281Z,12.20
2023-10-09T22:57:58.452Z,12.00
2023-10-09T23:00:02.041Z,10.40
2023-10-09T23:02:05.484Z,11.45
2023-10-09T23:04:17.106Z,12.75
2023-10-09T23:06:34.745Z,10.48
2023-10-09T23:08:38.676Z,11.55
2023-10-09T23:10:53.136Z,12.98
2023-10-09T23:13:15.982Z,12.43
2023-10-09T23:15:35.973Z,10.90
2023-10-09T23:17:49.564Z,12.60
2023-10-09T23:19:57.747Z,10.63
2023-10-09T23:22:09.979Z,11.30
2023-10-09T23:24:27.116Z,10.27
2023-10-09T23:26:33.946Z,14.93
2023-10-09T23:28:40.312Z,12.82
2023-10-09T23:30:45.296Z,11.27
2023-10-09T23:32:53.315Z,12.98
2023-10-09T23:34:57.093Z,10.40
2023-10-09T23:37:03.730Z,11.43
2023-10-09T23:39:13.963Z,10.18
2023-10-09T23:41:22.668Z,13.68
2023-10-09T23:43:29.647Z,10.27
2023-10-09T23:45:34.721Z,13.40
2023-10-09T23:47:42.456Z,11.95
2023-10-09T23:49:47.262Z,10.57
2023-10-09T23:51:55.516Z,9.25
2023-10-09T23:54:02.982Z,12.35
2023-10-09T23:56:10.753Z,12.23
2023-10-09T23:58:18.323Z,13.35
